createdAt,value
2022-08-17T00:01:51.522Z,100425.16
2022-08-17T00:04:24.404Z,100422.66
2022-08-17T00:06:55.794Z,100430.91
2022-08-17T00:09:27.096Z,100425.72
2022-08-17T00:12:40.695Z,100424.19
2022-08-17T00:14:49.901Z,100419.16
2022-08-17T00:17:21.443Z,100406.84
2022-08-17T00:19:52.740Z,100421.09
2022-08-17T00:22:34.399Z,100424.94
2022-08-17T00:25:16.053Z,100419.72
2022-08-17T00:27:47.438Z,100416.25
2022-08-17T00:30:18.769Z,100422.69
2022-08-17T00:33:15.279Z,100423.66
2022-08-17T00:35:43.629Z,100418.47
2022-08-17T00:38:15.554Z,100411.06
2022-08-17T00:40:51.692Z,100412.38
2022-08-17T00:43:28.629Z,100419.69
2022-08-17T00:46:02.936Z,100417.22
2022-08-17T00:48:35.292Z,100414.72
2022-08-17T00:51:40.553Z,100411.34
2022-08-17T00:54:27.058Z,100405.28
2022-08-17T00:57:06.878Z,100415.25
2022-08-17T00:59:45.058Z,100411.03
2022-08-17T01:02:19.766Z,100412.94
2022-08-17T01:04:52.857Z,100409.47
2022-08-17T01:07:25.363Z,100417.63
2022-08-17T01:09:57.210Z,100415.97
2022-08-17T01:12:29.126Z,100425.06
2022-08-17T01:15:00.446Z,100419.97
2022-08-17T01:17:32.632Z,100429.97
2022-08-17T01:20:04.558Z,100428.22
2022-08-17T01:22:35.987Z,100434.66
2022-08-17T01:25:08.856Z,100426.66
2022-08-17T01:27:41.409Z,100422.50
2022-08-17T01:30:58.506Z,100430.50
2022-08-17T01:33:05.640Z,100431.53
2022-08-17T01:35:38.337Z,100422.78
2022-08-17T01:38:09.642Z,100430.16
2022-08-17T01:40:46.775Z,100422.19
2022-08-17T01:43:32.889Z,100421.41
2022-08-17T01:46:04.427Z,100435.03
2022-08-17T01:48:38.701Z,100419.22
2022-08-17T01:51:10.148Z,100428.09
2022-08-17T01:53:45.906Z,100417.59
2022-08-17T01:56:20.606Z,100416.81
2022-08-17T01:58:52.416Z,100417.59
2022-08-17T02:01:26.581Z,100422.19
2022-08-17T02:04:00.977Z,100419.59
2022-08-17T02:06:52.697Z,100420.53
2022-08-17T02:09:29.879Z,100430.53
2022-08-17T02:12:38.080Z,100436.84
2022-08-17T02:14:54.906Z,100443.19
2022-08-17T02:17:26.414Z,100441.44
2022-08-17T02:19:57.756Z,100434.34
2022-08-17T02:22:29.085Z,100437.03
2022-08-17T02:25:02.272Z,100429.13
2022-08-17T02:27:33.894Z,100430.88
2022-08-17T02:30:59.083Z,100434.50
2022-08-17T02:32:59.716Z,100427.66
2022-08-17T02:35:37.069Z,100423.84
2022-08-17T02:38:08.706Z,100429.47
2022-08-17T02:40:40.521Z,100426.78
2022-08-17T02:43:13.635Z,100426.88
2022-08-17T02:45:44.925Z,100433.13
2022-08-17T02:48:16.257Z,100421.50
2022-08-17T02:51:02.732Z,100416.03
2022-08-17T02:53:36.025Z,100413.69
2022-08-17T02:56:07.666Z,100418.03
2022-08-17T02:58:39.116Z,100421.59
2022-08-17T03:01:10.820Z,100415.59
2022-08-17T03:03:42.396Z,100417.41
2022-08-17T03:06:13.730Z,100417.50
2022-08-17T03:08:45.104Z,100409.97
2022-08-17T03:11:16.422Z,100419.50
2022-08-17T03:13:47.770Z,100418.75
2022-08-17T03:16:19.084Z,100425.16
2022-08-17T03:18:50.404Z,100424.28
2022-08-17T03:21:21.773Z,100411.88
2022-08-17T03:23:54.497Z,100419.09
2022-08-17T03:26:29.643Z,100419.34
2022-08-17T03:29:01.279Z,100422.81
2022-08-17T03:31:32.660Z,100423.75
2022-08-17T03:34:08.429Z,100420.13
2022-08-17T03:36:39.747Z,100422.03
2022-08-17T03:39:11.178Z,100418.53
2022-08-17T03:41:43.662Z,100417.53
2022-08-17T03:44:14.961Z,100411.09
2022-08-17T03:47:05.144Z,100423.59
2022-08-17T03:49:55.064Z,100427.06
2022-08-17T03:52:45.158Z,100419.97
2022-08-17T03:55:41.638Z,100425.34
2022-08-17T03:58:13.032Z,100423.59
2022-08-17T04:00:45.562Z,100421.53
2022-08-17T04:03:18.125Z,100400.34
2022-08-17T04:05:49.438Z,100423.84
2022-08-17T04:08:20.967Z,100422.00
2022-08-17T04:10:52.284Z,100427.91
2022-08-17T04:13:24.827Z,100440.31
2022-08-17T04:15:59.137Z,100435.72
2022-08-17T04:18:30.451Z,100441.78
2022-08-17T04:21:05.066Z,100447.88
2022-08-17T04:23:37.785Z,100440.59
2022-08-17T04:26:09.118Z,100440.41
2022-08-17T04:28:42.079Z,100437.47
2022-08-17T04:31:14.547Z,100432.78
2022-08-17T04:33:45.912Z,100436.31
2022-08-17T04:36:17.256Z,100437.09
2022-08-17T04:38:48.615Z,100433.13
2022-08-17T04:41:38.625Z,100438.13
2022-08-17T04:44:14.743Z,100440.56
2022-08-17T04:47:07.096Z,100441.25
2022-08-17T04:49:41.887Z,100438.13
2022-08-17T04:52:29.641Z,100446.88
2022-08-17T04:55:04.798Z,100446.44
2022-08-17T04:57:39.374Z,100442.44
2022-08-17T05:00:13.789Z,100437.41
2022-08-17T05:02:49.956Z,100447.59
2022-08-17T05:05:36.202Z,100439.91
2022-08-17T05:08:07.897Z,100446.38
2022-08-17T05:10:39.512Z,100449.38
2022-08-17T05:13:20.310Z,100443.44
2022-08-17T05:15:57.839Z,100442.88
2022-08-17T05:18:29.770Z,100444.22
2022-08-17T05:21:02.239Z,100445.59
2022-08-17T05:23:41.747Z,100448.78
2022-08-17T05:26:25.787Z,100453.88
2022-08-17T05:29:02.866Z,100452.25
2022-08-17T05:31:34.447Z,100470.34
2022-08-17T05:34:05.798Z,100464.25
2022-08-17T05:36:43.853Z,100468.19
2022-08-17T05:39:17.211Z,100471.34
2022-08-17T05:41:48.810Z,100474.13
2022-08-17T05:44:20.168Z,100479.81
2022-08-17T05:46:54.061Z,100475.53
2022-08-17T05:49:28.535Z,100474.75
2022-08-17T05:52:20.064Z,100480.09
2022-08-17T05:54:57.887Z,100471.25
2022-08-17T05:57:43.500Z,100474.50
2022-08-17T06:00:31.283Z,100474.44
2022-08-17T06:03:24.604Z,100478.41
2022-08-17T06:06:19.569Z,100476.41
2022-08-17T06:09:34.004Z,100475.31
2022-08-17T06:12:33.816Z,100476.09
2022-08-17T06:15:14.131Z,100483.88
2022-08-17T06:17:45.877Z,100484.75
2022-08-17T06:20:17.382Z,100491.16
2022-08-17T06:22:54.005Z,100477.78
2022-08-17T06:25:31.385Z,100480.78
2022-08-17T06:28:13.965Z,100477.75
2022-08-17T06:31:00.722Z,100490.09
2022-08-17T06:33:38.229Z,100489.25
2022-08-17T06:36:55.866Z,100488.22
2022-08-17T06:39:45.879Z,100485.06
2022-08-17T06:42:54.959Z,100498.91
2022-08-17T06:45:17.660Z,100488.09
2022-08-17T06:47:55.644Z,100491.66
2022-08-17T06:50:47.606Z,100489.81
2022-08-17T06:53:31.640Z,100488.44
2022-08-17T06:56:21.764Z,100482.00
2022-08-17T06:58:56.897Z,100483.34
2022-08-17T07:01:37.466Z,100481.69
2022-08-17T07:04:14.156Z,100482.56
2022-08-17T07:06:53.154Z,100478.63
2022-08-17T07:09:34.328Z,100491.78
2022-08-17T07:12:15.817Z,100488.97
2022-08-17T07:14:59.361Z,100490.69
2022-08-17T07:17:47.563Z,100490.47
2022-08-17T07:20:22.560Z,100490.28
2022-08-17T07:23:08.816Z,100497.44
2022-08-17T07:25:40.136Z,100497.47
2022-08-17T07:28:12.927Z,100490.50
2022-08-17T07:30:53.176Z,100493.38
2022-08-17T07:33:28.160Z,100489.53
2022-08-17T07:36:00.202Z,100487.53
2022-08-17T07:38:34.337Z,100486.56
2022-08-17T07:41:08.237Z,100486.16
2022-08-17T07:43:39.558Z,100505.53
2022-08-17T07:46:29.404Z,100505.69
2022-08-17T07:49:00.661Z,100511.25
2022-08-17T07:51:52.718Z,100501.03
2022-08-17T07:54:39.011Z,100503.50
2022-08-17T07:57:10.267Z,100514.97
2022-08-17T08:00:01.868Z,100510.22
2022-08-17T08:02:41.369Z,100504.59
2022-08-17T08:05:48.709Z,100517.47
2022-08-17T08:08:43.544Z,100510.72
2022-08-17T08:11:27.819Z,100508.09
2022-08-17T08:14:33.544Z,100515.59
2022-08-17T08:17:07.505Z,100505.06
2022-08-17T08:19:40.746Z,100516.56
2022-08-17T08:22:21.979Z,100510.09
2022-08-17T08:25:14.222Z,100511.50
2022-08-17T08:27:57.120Z,100529.97
2022-08-17T08:30:33.069Z,100523.47
2022-08-17T08:33:10.258Z,100526.75
2022-08-17T08:35:55.476Z,100525.59
2022-08-17T08:38:48.755Z,100523.78
2022-08-17T08:41:34.302Z,100525.50
2022-08-17T08:45:00.473Z,100530.94
2022-08-17T08:47:37.716Z,100531.66
2022-08-17T08:50:37.110Z,100531.31
2022-08-17T08:53:32.724Z,100537.19
2022-08-17T08:56:16.335Z,100537.56
2022-08-17T08:58:50.709Z,100542.88
2022-08-17T09:01:38.052Z,100542.88
2022-08-17T09:04:50.198Z,100531.50
2022-08-17T09:07:42.037Z,100550.03
2022-08-17T09:10:25.434Z,100534.06
2022-08-17T09:13:15.549Z,100546.50
2022-08-17T09:15:52.490Z,100526.84
2022-08-17T09:19:00.224Z,100533.50
2022-08-17T09:21:26.629Z,100533.50
2022-08-17T09:24:09.722Z,100542.75
2022-08-17T09:26:51.151Z,100533.94
2022-08-17T09:29:25.435Z,100542.41
2022-08-17T09:32:17.379Z,100541.56
2022-08-17T09:34:55.999Z,100530.44
2022-08-17T09:37:33.612Z,100528.13
2022-08-17T09:40:15.752Z,100529.56
2022-08-17T09:42:54.274Z,100534.78
2022-08-17T09:45:42.517Z,100538.13
2022-08-17T09:48:31.986Z,100531.31
2022-08-17T09:51:18.154Z,100534.41
2022-08-17T09:53:50.317Z,100537.13
2022-08-17T09:56:21.643Z,100545.19
2022-08-17T09:59:34.236Z,100529.25
2022-08-17T10:02:28.776Z,100537.31
2022-08-17T10:05:08.899Z,100535.63
2022-08-17T10:08:12.326Z,100529.97
2022-08-17T10:10:52.394Z,100532.06
2022-08-17T10:13:53.711Z,100537.88
2022-08-17T10:16:25.530Z,100549.56
2022-08-17T10:19:03.291Z,100536.84
2022-08-17T10:22:00.585Z,100532.72
2022-08-17T10:25:22.867Z,100530.63
2022-08-17T10:27:59.613Z,100529.97
2022-08-17T10:30:36.487Z,100527.91
2022-08-17T10:33:26.181Z,100528.94
2022-08-17T10:36:10.698Z,100527.22
2022-08-17T10:39:02.996Z,100527.75
2022-08-17T10:41:42.938Z,100526.03
2022-08-17T10:44:39.371Z,100519.16
2022-08-17T10:47:16.306Z,100522.25
2022-08-17T10:49:53.697Z,100515.88
2022-08-17T10:52:47.654Z,100515.22
2022-08-17T10:55:20.287Z,100513.16
2022-08-17T10:57:54.731Z,100521.41
2022-08-17T11:00:27.861Z,100529.28
2022-08-17T11:03:00.067Z,100516.94
2022-08-17T11:05:55.597Z,100517.97
2022-08-17T11:09:08.247Z,100509.69
2022-08-17T11:11:59.507Z,100508.88
2022-08-17T11:14:50.542Z,100506.44
2022-08-17T11:17:40.637Z,100508.16
2022-08-17T11:20:45.975Z,100508.31
2022-08-17T11:23:48.251Z,100507.81
2022-08-17T11:26:30.511Z,100500.63
2022-08-17T11:29:21.975Z,100511.44
2022-08-17T11:32:11.445Z,100513.03
2022-08-17T11:34:44.484Z,100507.06
2022-08-17T11:37:24.733Z,100501.81
2022-08-17T11:40:12.694Z,100500.59
2022-08-17T11:43:10.613Z,100504.22
2022-08-17T11:45:45.183Z,100504.03
2022-08-17T11:49:06.795Z,100497.34
2022-08-17T11:52:10.842Z,100500.28
2022-08-17T11:54:47.606Z,100497.88
2022-08-17T11:57:29.406Z,100495.81
2022-08-17T12:00:12.188Z,100488.78
2022-08-17T12:02:48.083Z,100496.69
2022-08-17T12:05:21.856Z,100501.47
2022-08-17T12:08:17.728Z,100488.94
2022-08-17T12:10:56.486Z,100486.72
2022-08-17T12:13:38.723Z,100484.50
2022-08-17T12:16:17.399Z,100481.41
2022-08-17T12:19:02.273Z,100477.63
2022-08-17T12:21:59.374Z,100482.78
2022-08-17T12:24:55.322Z,100480.75
2022-08-17T12:27:54.811Z,100481.94
2022-08-17T12:30:23.002Z,100477.31
2022-08-17T12:32:54.424Z,100494.13
2022-08-17T12:35:35.880Z,100479.19
2022-08-17T12:38:31.916Z,100480.22
2022-08-17T12:41:21.707Z,100482.28
2022-08-17T12:44:03.427Z,100492.22
2022-08-17T12:47:03.235Z,100479.88
2022-08-17T12:49:39.688Z,100480.03
2022-08-17T12:52:19.499Z,100475.38
2022-08-17T12:54:59.834Z,100475.00
2022-08-17T12:57:42.122Z,100476.00
2022-08-17T13:00:26.654Z,100475.63
2022-08-17T13:02:57.913Z,100480.06
2022-08-17T13:05:33.960Z,100467.72
2022-08-17T13:08:18.578Z,100460.66
2022-08-17T13:11:16.464Z,100460.81
2022-08-17T13:13:51.218Z,100453.59
2022-08-17T13:16:26.586Z,100449.63
2022-08-17T13:19:03.988Z,100450.16
2022-08-17T13:21:37.599Z,100438.91
2022-08-17T13:24:11.897Z,100442.31
2022-08-17T13:26:54.319Z,100427.59
2022-08-17T13:29:30.600Z,100438.25
2022-08-17T13:32:06.215Z,100432.41
2022-08-17T13:35:14.303Z,100430.00
2022-08-17T13:37:41.023Z,100431.38
2022-08-17T13:40:14.029Z,100432.03
2022-08-17T13:42:52.086Z,100434.09
2022-08-17T13:45:39.815Z,100434.09
2022-08-17T13:48:23.092Z,100421.84
2022-08-17T13:50:54.353Z,100431.59
2022-08-17T13:53:31.191Z,100429.72
2022-08-17T13:56:37.104Z,100431.44
2022-08-17T13:59:16.357Z,100427.19
2022-08-17T14:01:53.799Z,100426.84
2022-08-17T14:04:29.316Z,100427.69
2022-08-17T14:07:23.130Z,100432.66
2022-08-17T14:10:01.563Z,100428.03
2022-08-17T14:12:34.820Z,100425.47
2022-08-17T14:15:07.690Z,100429.91
2022-08-17T14:17:39.593Z,100426.31
2022-08-17T14:20:13.235Z,100430.97
2022-08-17T14:22:48.213Z,100427.53
2022-08-17T14:25:24.097Z,100427.03
2022-08-17T14:27:56.278Z,100432.69
2022-08-17T14:30:30.096Z,100433.72
2022-08-17T14:33:02.228Z,100428.03
2022-08-17T14:35:34.330Z,100425.63
2022-08-17T14:38:06.002Z,100420.97
2022-08-17T14:40:37.832Z,100428.50
2022-08-17T14:43:09.245Z,100417.34
2022-08-17T14:45:41.150Z,100424.34
2022-08-17T14:48:13.053Z,100423.59
2022-08-17T14:50:46.039Z,100414.66
2022-08-17T14:53:17.497Z,100409.25
2022-08-17T14:55:50.576Z,100399.09
2022-08-17T14:58:23.394Z,100406.31
2022-08-17T15:00:55.343Z,100408.38
2022-08-17T15:03:26.682Z,100404.72
2022-08-17T15:05:57.990Z,100407.16
2022-08-17T15:08:30.238Z,100403.59
2022-08-17T15:11:02.938Z,100397.47
2022-08-17T15:13:34.262Z,100390.78
2022-08-17T15:16:05.843Z,100398.69
2022-08-17T15:18:37.187Z,100394.06
2022-08-17T15:21:11.880Z,100388.41
2022-08-17T15:23:43.653Z,100390.94
2022-08-17T15:26:15.056Z,100387.16
2022-08-17T15:28:52.211Z,100388.34
2022-08-17T15:31:29.887Z,100383.53
2022-08-17T15:34:05.264Z,100381.59
2022-08-17T15:36:40.675Z,100369.72
2022-08-17T15:39:20.636Z,100371.06
2022-08-17T15:41:58.512Z,100357.66
2022-08-17T15:44:35.007Z,100357.50
2022-08-17T15:47:06.611Z,100353.41
2022-08-17T15:49:41.719Z,100337.69
2022-08-17T15:52:17.178Z,100331.66
2022-08-17T15:54:54.704Z,100338.50
2022-08-17T15:57:27.534Z,100327.81
2022-08-17T15:59:59.212Z,100334.31
2022-08-17T16:03:44.481Z,100336.31
2022-08-17T16:05:27.078Z,100333.97
2022-08-17T16:07:59.548Z,100334.06
2022-08-17T16:10:35.103Z,100337.13
2022-08-17T16:13:17.615Z,100329.94
2022-08-17T16:15:57.206Z,100343.59
2022-08-17T16:18:31.519Z,100340.88
2022-08-17T16:21:24.986Z,100330.94
2022-08-17T16:24:13.338Z,100324.06
2022-08-17T16:26:45.077Z,100322.34
2022-08-17T16:29:16.631Z,100328.84
2022-08-17T16:31:48.016Z,100322.34
2022-08-17T16:34:19.566Z,100318.59
2022-08-17T16:36:55.779Z,100303.38
2022-08-17T16:39:29.099Z,100304.22
2022-08-17T16:42:02.660Z,100311.03
2022-08-17T16:44:33.967Z,100306.91
2022-08-17T16:47:07.355Z,100296.28
2022-08-17T16:49:39.284Z,100302.94
2022-08-17T16:52:11.261Z,100297.94
2022-08-17T16:54:44.418Z,100294.97
2022-08-17T16:57:17.345Z,100301.94
2022-08-17T16:59:51.389Z,100297.06
2022-08-17T17:02:34.578Z,100288.81
2022-08-17T17:05:11.705Z,100284.28
2022-08-17T17:07:55.593Z,100289.00
2022-08-17T17:10:50.749Z,100292.81
2022-08-17T17:13:32.560Z,100303.25
2022-08-17T17:16:21.482Z,100272.06
2022-08-17T17:19:08.964Z,100291.88
2022-08-17T17:22:08.973Z,100290.22
2022-08-17T17:25:13.142Z,100290.56
2022-08-17T17:27:57.124Z,100292.78
2022-08-17T17:30:55.051Z,100311.03
2022-08-17T17:33:42.470Z,100319.44
2022-08-17T17:36:34.461Z,100344.59
2022-08-17T17:39:31.768Z,100386.81
2022-08-17T17:42:08.339Z,100394.84
2022-08-17T17:44:49.693Z,100404.19
2022-08-17T17:47:21.325Z,100432.63
2022-08-17T17:49:52.698Z,100445.06
2022-08-17T17:52:32.452Z,100451.16
2022-08-17T17:55:32.741Z,100464.28
2022-08-17T17:58:25.416Z,100469.34
2022-08-17T18:01:17.285Z,100451.41
2022-08-17T18:04:17.045Z,100455.81
2022-08-17T18:07:12.129Z,100424.41
2022-08-17T18:10:19.491Z,100423.56
2022-08-17T18:13:15.265Z,100418.56
2022-08-17T18:15:54.219Z,100406.81
2022-08-17T18:18:38.176Z,100389.06
2022-08-17T18:21:16.851Z,100388.66
2022-08-17T18:23:54.592Z,100399.09
2022-08-17T18:26:37.758Z,100392.59
2022-08-17T18:29:27.682Z,100380.66
2022-08-17T18:32:19.069Z,100386.28
2022-08-17T18:34:59.526Z,100394.44
2022-08-17T18:37:34.137Z,100387.16
2022-08-17T18:40:34.838Z,100395.25
2022-08-17T18:43:24.777Z,100404.31
2022-08-17T18:45:57.372Z,100399.00
2022-08-17T18:48:33.654Z,100409.19
2022-08-17T18:51:51.054Z,100387.91
2022-08-17T18:54:24.531Z,100412.25
2022-08-17T18:56:58.970Z,100414.28
2022-08-17T18:59:40.402Z,100423.34
2022-08-17T19:02:20.589Z,100437.97
2022-08-17T19:05:22.985Z,100438.38
2022-08-17T19:08:19.077Z,100438.81
2022-08-17T19:10:57.183Z,100432.47
2022-08-17T19:13:33.542Z,100423.69
2022-08-17T19:16:20.065Z,100447.78
2022-08-17T19:19:05.518Z,100435.16
2022-08-17T19:21:45.658Z,100426.19
2022-08-17T19:24:20.102Z,100434.94
2022-08-17T19:26:56.569Z,100421.47
2022-08-17T19:29:44.852Z,100408.31
2022-08-17T19:32:21.332Z,100396.84
2022-08-17T19:34:53.187Z,100400.00
2022-08-17T19:37:46.928Z,100392.00
2022-08-17T19:40:52.414Z,100381.63
2022-08-17T19:43:30.235Z,100385.50
2022-08-17T19:46:19.037Z,100391.19
2022-08-17T19:49:11.115Z,100384.56
2022-08-17T19:52:08.655Z,100388.97
2022-08-17T19:54:47.838Z,100382.06
2022-08-17T19:57:38.597Z,100386.50
2022-08-17T20:00:14.484Z,100379.38
2022-08-17T20:03:08.290Z,100366.63
2022-08-17T20:06:13.706Z,100368.56
2022-08-17T20:09:01.962Z,100384.66
2022-08-17T20:11:46.769Z,100376.66
2022-08-17T20:14:27.736Z,100376.41
2022-08-17T20:17:02.616Z,100387.72
2022-08-17T20:19:53.175Z,100382.06
2022-08-17T20:22:36.838Z,100388.03
2022-08-17T20:25:42.416Z,100393.00
2022-08-17T20:28:24.040Z,100405.72
2022-08-17T20:30:56.238Z,100390.69
2022-08-17T20:33:36.819Z,100398.41
2022-08-17T20:36:10.994Z,100393.97
2022-08-17T20:38:55.341Z,100386.19
2022-08-17T20:41:30.289Z,100384.53
2022-08-17T20:44:04.749Z,100384.53
2022-08-17T20:46:36.006Z,100390.91
2022-08-17T20:49:38.142Z,100391.00
2022-08-17T20:52:16.469Z,100384.28
2022-08-17T20:54:53.747Z,100381.88
2022-08-17T20:57:37.116Z,100377.53
2022-08-17T21:00:50.918Z,100381.28
2022-08-17T21:03:26.629Z,100398.53
2022-08-17T21:06:14.423Z,100378.56
2022-08-17T21:09:13.091Z,100393.44
2022-08-17T21:12:04.317Z,100389.00
2022-08-17T21:15:00.626Z,100396.28
2022-08-17T21:17:47.743Z,100396.47
2022-08-17T21:20:32.245Z,100377.31
2022-08-17T21:23:12.926Z,100397.44
2022-08-17T21:26:17.240Z,100397.25
2022-08-17T21:29:29.984Z,100408.78
2022-08-17T21:31:59.084Z,100409.75
2022-08-17T21:34:34.638Z,100407.16
2022-08-17T21:37:22.168Z,100399.19
2022-08-17T21:40:24.050Z,100394.75
2022-08-17T21:43:00.013Z,100388.69
2022-08-17T21:45:35.006Z,100392.25
2022-08-17T21:48:16.838Z,100393.50
2022-08-17T21:51:02.805Z,100391.84
2022-08-17T21:53:39.983Z,100396.47
2022-08-17T21:56:19.576Z,100389.34
2022-08-17T21:58:59.148Z,100392.16
2022-08-17T22:01:34.844Z,100389.53
2022-08-17T22:04:12.183Z,100394.94
2022-08-17T22:06:52.389Z,100395.81
2022-08-17T22:09:31.509Z,100403.00
2022-08-17T22:12:08.974Z,100399.34
2022-08-17T22:14:52.345Z,100407.44
2022-08-17T22:17:34.268Z,100393.97
2022-08-17T22:20:18.430Z,100392.25
2022-08-17T22:23:08.363Z,100393.19
2022-08-17T22:26:00.046Z,100388.00
2022-08-17T22:28:49.150Z,100387.31
2022-08-17T22:31:29.635Z,100388.38
2022-08-17T22:34:03.697Z,100393.88
2022-08-17T22:36:37.327Z,100382.41
2022-08-17T22:39:08.582Z,100393.19
2022-08-17T22:41:48.556Z,100390.59
2022-08-17T22:44:29.490Z,100388.94
2022-08-17T22:47:11.097Z,100390.88
2022-08-17T22:49:53.827Z,100395.41
2022-08-17T22:52:32.583Z,100392.03
2022-08-17T22:55:34.322Z,100399.41
2022-08-17T22:58:38.692Z,100393.84
2022-08-17T23:01:29.943Z,100401.25
2022-08-17T23:04:05.750Z,100393.16
2022-08-17T23:06:41.688Z,100387.69
2022-08-17T23:09:13.018Z,100404.72
2022-08-17T23:11:49.119Z,100394.91
2022-08-17T23:14:21.384Z,100395.09
2022-08-17T23:16:52.729Z,100411.06
2022-08-17T23:19:24.043Z,100404.81
2022-08-17T23:21:56.690Z,100389.69
2022-08-17T23:24:32.600Z,100399.50
2022-08-17T23:27:07.256Z,100396.63
2022-08-17T23:29:41.964Z,100403.06
2022-08-17T23:32:15.720Z,100405.59
2022-08-17T23:34:48.082Z,100406.16
2022-08-17T23:37:19.782Z,100398.75
2022-08-17T23:39:51.245Z,100401.09
2022-08-17T23:42:22.882Z,100398.09
2022-08-17T23:44:54.186Z,100406.88
2022-08-17T23:47:25.543Z,100412.84
2022-08-17T23:49:57.005Z,100407.25
2022-08-17T23:52:39.049Z,100394.75
2022-08-17T23:55:14.985Z,100406.88
2022-08-17T23:57:51.139Z,100401.28
